createdAt,value
2022-10-09T00:27:23.440Z,1025.68
2022-10-09T00:56:02.243Z,1025.61
2022-10-09T01:25:33.972Z,1025.22
2022-10-09T04:59:03.032Z,1024.41
2022-10-09T05:27:50.372Z,1024.3
2022-10-09T05:56:26.353Z,1024.31
2022-10-09T06:25:07.937Z,1024.24
2022-10-09T06:53:36.631Z,1024.36
2022-10-09T07:22:03.248Z,1024.48
2022-10-09T07:50:26.451Z,1024.47
2022-10-09T08:19:03.628Z,1024.35
2022-10-09T08:47:22.995Z,1024.25
2022-10-09T09:17:07.076Z,1023.91
2022-10-09T09:44:55.919Z,1023.44
2022-10-09T10:42:11.913Z,1022.79
2022-10-09T11:10:44.790Z,1022.4
2022-10-09T11:39:02.313Z,1022.01
2022-10-09T12:08:25.172Z,1021.53
2022-10-09T12:36:37.290Z,1020.96
2022-10-09T13:05:06.758Z,1020.53
2022-10-09T13:33:43.443Z,1020.22
2022-10-09T14:02:04.528Z,1019.85
2022-10-09T14:30:25.945Z,1019.49
2022-10-09T14:58:39.784Z,1019.25
2022-10-09T15:27:18.908Z,1018.99
2022-10-09T15:55:43.574Z,1018.75
2022-10-09T16:24:11.475Z,1018.65
2022-10-09T16:52:42.849Z,1018.82
2022-10-09T17:21:00.149Z,1018.98
2022-10-09T17:49:32.765Z,1019.1
2022-10-09T18:17:58.059Z,1019.16
2022-10-09T18:46:25.780Z,1019.07
2022-10-09T19:14:54.607Z,1019.02
2022-10-09T19:43:27.459Z,1019.02
2022-10-09T20:12:03.612Z,1019.08
2022-10-09T20:40:42.531Z,1019.05
2022-10-09T22:09:30.381Z,1019.18
2022-10-09T22:38:11.321Z,1019.17
2022-10-09T23:06:43.520Z,1019.03
2022-10-09T23:35:20.272Z,1019.05
